CDT,Max TemperatureF,Mean TemperatureF,Min TemperatureF,Max Dew PointF,MeanDew PointF,Min DewpointF,Max Humidity, Mean Humidity, Min Humidity, Max Sea Level PressureIn, Mean Sea Level PressureIn, Min Sea Level PressureIn, Max VisibilityMiles, Mean VisibilityMiles, Min VisibilityMiles, Max Wind SpeedMPH, Mean Wind SpeedMPH, Max Gust SpeedMPH,PrecipitationIn, CloudCover, Events, WindDirDegrees
2013-4-1,30,18,6,10,6,1,79,57,37,30.12,30.08,29.99,10,10,10,21,11,28,0.00,1,,301
2013-4-2,30,20,10,9,3,-6,85,52,21,30.29,30.21,30.11,10,10,10,15,6,17,0.00,0,,309
2013-4-3,42,22,1,27,8,-4,85,50,26,30.30,30.13,29.89,10,10,10,21,5,31,0.00,2,,180
2013-4-4,37,30,21,28,19,9,93,62,33,30.15,30.01,29.88,10,10,5,16,7,25,0.00,2,,306
2013-4-5,37,22,6,25,10,3,92,56,28,30.21,30.12,29.96,10,10,4,12,2,,0.00,2,Snow,145
2013-4-6,33,30,26,30,28,23,93,88,80,29.95,29.71,29.61,10,7,1,9,5,,0.17,8,Rain-Snow,108
2013-4-7,37,32,28,30,27,23,100,81,56,29.84,29.80,29.69,10,9,1,8,3,,0.13,8,Snow,232
2013-4-8,37,34,30,30,29,25,100,87,70,30.06,29.88,29.79,10,8,3,8,1,,0.00,5,Snow,322
2013-4-9,37,27,17,21,14,10,80,57,33,30.21,30.17,30.07,10,10,10,10,6,,0.00,3,,327
2013-4-10,44,30,17,12,8,5,73,37,20,30.24,30.15,30.07,10,10,10,7,1,,0.00,0,,62
2013-4-11,30,27,24,21,15,9,86,62,43,30.10,29.97,29.88,10,8,0,9,5,25,0.08,3,Snow,84
2013-4-12,30,26,21,23,20,18,93,78,60,29.88,29.81,29.78,10,4,1,9,4,,0.17,6,Snow,53
2013-4-13,32,24,17,21,18,14,93,77,55,29.93,29.84,29.79,10,9,2,5,0,,0.02,6,Snow,10
2013-4-14,44,24,3,27,16,0,93,67,36,29.94,29.83,29.64,10,9,2,13,3,22,0.05,1,Snow,96
2013-4-15,37,32,28,30,28,25,93,84,70,29.78,29.56,29.47,10,7,1,12,6,22,0.07,6,Rain-Snow,123
2013-4-16,37,32,28,28,24,21,93,74,52,30.34,30.10,29.78,10,10,3,9,5,,0.00,8,Snow,311
2013-4-17,35,32,28,28,26,25,86,79,70,30.35,30.25,30.07,10,8,2,9,1,,0.01,7,Snow,122
2013-4-18,32,29,26,27,26,25,93,87,75,30.07,29.81,29.59,10,2,1,8,1,,0.39,7,Snow,344
2013-4-19,30,22,12,25,15,0,93,67,27,29.91,29.69,29.58,10,5,1,14,7,25,0.12,3,Snow,329
2013-4-20,37,18,-2,9,2,-8,85,46,20,30.23,30.15,29.98,10,10,10,8,2,,0.00,0,,167
2013-4-21,35,27,19,30,21,9,93,72,47,30.24,30.09,29.96,10,8,1,17,8,26,0.07,5,Rain-Snow,154
2013-4-22,35,30,26,30,22,18,93,69,48,30.23,30.16,30.03,10,10,10,12,5,,0.00,2,,298
2013-4-23,39,32,24,19,15,9,80,51,28,30.16,30.05,29.95,10,10,10,12,4,17,0.00,3,,301
2013-4-24,42,30,17,27,18,10,86,61,29,29.95,29.86,29.80,10,10,10,8,1,9,0.00,2,,261
2013-4-25,44,36,28,27,22,14,93,62,29,30.06,30.00,29.88,10,10,10,12,5,21,0.00,4,,242
2013-4-26,60,48,35,30,26,19,70,45,27,30.07,29.98,29.92,10,10,10,9,5,17,0.00,2,,194
2013-4-27,66,52,39,28,26,25,61,36,21,30.07,29.93,29.77,10,10,10,17,5,22,0.00,1,,168
2013-4-28,62,53,44,45,38,28,76,57,41,29.77,29.68,29.63,10,10,10,13,7,20,0.00,1,Rain,188
2013-4-29,64,46,28,28,22,14,93,42,14,29.82,29.71,29.59,10,10,10,10,4,,0.00,0,,171
2013-4-30,62,53,42,50,37,25,93,61,24,29.86,29.52,29.27,10,9,1,22,8,33,0.19,2,Rain-Thunderstorm,198